sensor_id;sensor_type;location;lat;lon;timestamp;pressure;altitude;pressure_sealevel;temperature;humidity
70916;BME280;58557;50.982;-3.222;2022-12-08T00:01:22;101013.92;;;0.45;59.61
70916;BME280;58557;50.982;-3.222;2022-12-08T00:03:46;101007.67;;;1.83;57.84
70916;BME280;58557;50.982;-3.222;2022-12-08T00:06:22;101009.24;;;1.80;57.27
70916;BME280;58557;50.982;-3.222;2022-12-08T00:08:37;101008.08;;;1.62;57.03
70916;BME280;58557;50.982;-3.222;2022-12-08T00:11:03;101000.30;;;2.25;55.68
70916;BME280;58557;50.982;-3.222;2022-12-08T00:13:28;100998.95;;;1.32;57.28
70916;BME280;58557;50.982;-3.222;2022-12-08T00:15:58;101001.22;;;-0.59;62.82
70916;BME280;58557;50.982;-3.222;2022-12-08T00:18:18;100992.10;;;0.51;60.70
70916;BME280;58557;50.982;-3.222;2022-12-08T00:20:44;100987.51;;;1.84;55.91
70916;BME280;58557;50.982;-3.222;2022-12-08T00:23:10;100991.23;;;-0.03;60.94
70916;BME280;58557;50.982;-3.222;2022-12-08T00:25:35;100989.44;;;-0.20;63.95
70916;BME280;58557;50.982;-3.222;2022-12-08T00:28:01;100984.71;;;0.92;61.67
70916;BME280;58557;50.982;-3.222;2022-12-08T00:30:26;100980.70;;;0.37;60.44
70916;BME280;58557;50.982;-3.222;2022-12-08T00:32:52;100973.39;;;1.21;58.84
70916;BME280;58557;50.982;-3.222;2022-12-08T00:35:18;100971.56;;;1.33;58.00
70916;BME280;58557;50.982;-3.222;2022-12-08T00:37:43;100974.55;;;0.49;60.60
70916;BME280;58557;50.982;-3.222;2022-12-08T00:40:09;100967.94;;;0.74;60.67
70916;BME280;58557;50.982;-3.222;2022-12-08T00:42:34;100969.07;;;-0.61;63.87
70916;BME280;58557;50.982;-3.222;2022-12-08T00:44:59;100967.71;;;0.13;63.40
70916;BME280;58557;50.982;-3.222;2022-12-08T00:47:25;100963.19;;;0.40;61.19
70916;BME280;58557;50.982;-3.222;2022-12-08T00:49:51;100953.86;;;1.13;59.39
70916;BME280;58557;50.982;-3.222;2022-12-08T00:52:16;100949.03;;;1.45;57.64
70916;BME280;58557;50.982;-3.222;2022-12-08T00:54:42;100943.44;;;0.89;58.17
70916;BME280;58557;50.982;-3.222;2022-12-08T00:57:07;100935.87;;;0.40;58.14
70916;BME280;58557;50.982;-3.222;2022-12-08T00:59:33;100934.32;;;1.52;56.03
70916;BME280;58557;50.982;-3.222;2022-12-08T01:01:59;100929.57;;;2.15;54.56
70916;BME280;58557;50.982;-3.222;2022-12-08T01:04:25;100927.04;;;1.55;56.28
70916;BME280;58557;50.982;-3.222;2022-12-08T01:06:50;100921.89;;;1.77;54.86
70916;BME280;58557;50.982;-3.222;2022-12-08T01:09:16;100921.16;;;0.53;57.95
70916;BME280;58557;50.982;-3.222;2022-12-08T01:11:41;100920.49;;;0.14;58.36
70916;BME280;58557;50.982;-3.222;2022-12-08T01:14:07;100913.38;;;0.52;58.92
70916;BME280;58557;50.982;-3.222;2022-12-08T01:16:34;100918.20;;;0.26;60.00
70916;BME280;58557;50.982;-3.222;2022-12-08T01:18:59;100913.94;;;0.79;56.22
70916;BME280;58557;50.982;-3.222;2022-12-08T01:21:25;100912.37;;;0.80;58.07
70916;BME280;58557;50.982;-3.222;2022-12-08T01:23:49;100914.35;;;-0.28;62.78
70916;BME280;58557;50.982;-3.222;2022-12-08T01:26:16;100912.66;;;-0.19;62.71
70916;BME280;58557;50.982;-3.222;2022-12-08T01:28:41;100909.24;;;0.96;58.88
70916;BME280;58557;50.982;-3.222;2022-12-08T01:31:11;100909.42;;;0.89;57.88
70916;BME280;58557;50.982;-3.222;2022-12-08T01:33:31;100907.93;;;2.61;53.69
70916;BME280;58557;50.982;-3.222;2022-12-08T01:36:02;100904.40;;;2.18;54.40
70916;BME280;58557;50.982;-3.222;2022-12-08T01:38:23;100898.13;;;0.64;56.26
70916;BME280;58557;50.982;-3.222;2022-12-08T01:40:49;100892.22;;;0.02;57.12
70916;BME280;58557;50.982;-3.222;2022-12-08T01:43:16;100887.30;;;0.76;57.01
70916;BME280;58557;50.982;-3.222;2022-12-08T01:45:40;100890.20;;;0.69;56.70
70916;BME280;58557;50.982;-3.222;2022-12-08T01:48:09;100885.71;;;0.30;58.61
70916;BME280;58557;50.982;-3.222;2022-12-08T01:50:30;100886.82;;;-0.20;60.04
70916;BME280;58557;50.982;-3.222;2022-12-08T01:52:58;100878.06;;;1.20;55.98
70916;BME280;58557;50.982;-3.222;2022-12-08T01:55:24;100874.42;;;1.75;54.48
70916;BME280;58557;50.982;-3.222;2022-12-08T01:57:49;100876.25;;;1.26;54.71
70916;BME280;58557;50.982;-3.222;2022-12-08T02:00:17;100872.96;;;-0.01;59.32
70916;BME280;58557;50.982;-3.222;2022-12-08T02:02:46;100874.04;;;2.03;53.80
70916;BME280;58557;50.982;-3.222;2022-12-08T02:05:05;100873.42;;;1.69;54.89
70916;BME280;58557;50.982;-3.222;2022-12-08T02:07:29;100871.45;;;1.83;56.33
70916;BME280;58557;50.982;-3.222;2022-12-08T02:09:54;100867.58;;;0.73;57.91
70916;BME280;58557;50.982;-3.222;2022-12-08T02:12:20;100869.22;;;0.16;57.18
70916;BME280;58557;50.982;-3.222;2022-12-08T02:14:46;100868.23;;;0.78;56.97
70916;BME280;58557;50.982;-3.222;2022-12-08T02:17:23;100866.60;;;0.03;57.84
70916;BME280;58557;50.982;-3.222;2022-12-08T02:19:56;100865.31;;;0.95;55.54
70916;BME280;58557;50.982;-3.222;2022-12-08T02:22:07;100863.55;;;0.90;57.62
70916;BME280;58557;50.982;-3.222;2022-12-08T02:24:32;100860.18;;;0.65;56.74
70916;BME280;58557;50.982;-3.222;2022-12-08T02:31:52;100849.30;;;0.42;57.44
70916;BME280;58557;50.982;-3.222;2022-12-08T02:34:16;100852.99;;;-0.39;60.14
70916;BME280;58557;50.982;-3.222;2022-12-08T02:36:43;100843.04;;;0.99;58.14
70916;BME280;58557;50.982;-3.222;2022-12-08T02:39:07;100837.62;;;0.93;56.54
70916;BME280;58557;50.982;-3.222;2022-12-08T02:41:32;100830.79;;;-0.07;58.40
70916;BME280;58557;50.982;-3.222;2022-12-08T02:43:56;100826.50;;;0.50;57.44
70916;BME280;58557;50.982;-3.222;2022-12-08T02:46:21;100822.23;;;0.90;56.80
70916;BME280;58557;50.982;-3.222;2022-12-08T02:48:43;100822.43;;;0.43;57.33
70916;BME280;58557;50.982;-3.222;2022-12-08T02:51:09;100825.40;;;1.61;55.18
70916;BME280;58557;50.982;-3.222;2022-12-08T02:53:35;100822.41;;;1.77;53.87
70916;BME280;58557;50.982;-3.222;2022-12-08T02:56:05;100822.77;;;0.43;57.45
70916;BME280;58557;50.982;-3.222;2022-12-08T02:58:35;100821.52;;;0.14;58.10
70916;BME280;58557;50.982;-3.222;2022-12-08T03:01:03;100814.89;;;0.81;56.07
70916;BME280;58557;50.982;-3.222;2022-12-08T03:03:23;100812.59;;;0.03;57.11
70916;BME280;58557;50.982;-3.222;2022-12-08T03:05:54;100813.50;;;-0.70;57.39
70916;BME280;58557;50.982;-3.222;2022-12-08T03:08:12;100806.45;;;0.49;56.07
70916;BME280;58557;50.982;-3.222;2022-12-08T03:10:36;100805.46;;;0.49;55.48
70916;BME280;58557;50.982;-3.222;2022-12-08T03:13:01;100799.68;;;0.55;55.56
70916;BME280;58557;50.982;-3.222;2022-12-08T03:15:23;100794.82;;;-0.31;57.89
70916;BME280;58557;50.982;-3.222;2022-12-08T03:17:51;100798.22;;;-0.41;58.51
70916;BME280;58557;50.982;-3.222;2022-12-08T03:20:19;100794.96;;;0.76;55.49
70916;BME280;58557;50.982;-3.222;2022-12-08T03:22:43;100788.87;;;0.88;54.14
70916;BME280;58557;50.982;-3.222;2022-12-08T03:25:07;100784.41;;;0.31;57.32
70916;BME280;58557;50.982;-3.222;2022-12-08T03:27:31;100780.55;;;0.84;55.65
70916;BME280;58557;50.982;-3.222;2022-12-08T03:29:58;100784.13;;;0.04;57.17
70916;BME280;58557;50.982;-3.222;2022-12-08T03:32:26;100781.43;;;0.65;55.50
70916;BME280;58557;50.982;-3.222;2022-12-08T03:34:47;100782.10;;;1.35;53.84
70916;BME280;58557;50.982;-3.222;2022-12-08T03:37:12;100776.98;;;1.37;54.34
70916;BME280;58557;50.982;-3.222;2022-12-08T03:39:37;100780.39;;;1.11;52.85
70916;BME280;58557;50.982;-3.222;2022-12-08T03:42:02;100776.90;;;1.41;53.11
70916;BME280;58557;50.982;-3.222;2022-12-08T03:44:28;100774.59;;;1.85;51.54
70916;BME280;58557;50.982;-3.222;2022-12-08T03:46:53;100771.08;;;1.91;51.30
70916;BME280;58557;50.982;-3.222;2022-12-08T03:49:18;100768.50;;;2.51;49.52
70916;BME280;58557;50.982;-3.222;2022-12-08T03:51:44;100763.51;;;2.47;49.97
70916;BME280;58557;50.982;-3.222;2022-12-08T03:54:09;100765.48;;;0.89;53.21
70916;BME280;58557;50.982;-3.222;2022-12-08T03:56:36;100767.35;;;0.43;54.05
70916;BME280;58557;50.982;-3.222;2022-12-08T03:59:01;100764.51;;;0.91;53.46
70916;BME280;58557;50.982;-3.222;2022-12-08T04:01:27;100764.81;;;0.67;53.27
70916;BME280;58557;50.982;-3.222;2022-12-08T04:03:53;100761.23;;;0.50;53.70
70916;BME280;58557;50.982;-3.222;2022-12-08T04:06:19;100756.36;;;0.14;55.61
70916;BME280;58557;50.982;-3.222;2022-12-08T04:08:43;100748.48;;;1.74;51.59
70916;BME280;58557;50.982;-3.222;2022-12-08T04:11:10;100748.99;;;1.06;53.42
70916;BME280;58557;50.982;-3.222;2022-12-08T04:13:35;100750.19;;;2.30;50.09
70916;BME280;58557;50.982;-3.222;2022-12-08T04:16:00;100749.62;;;0.50;52.40
70916;BME280;58557;50.982;-3.222;2022-12-08T04:18:25;100749.93;;;0.45;53.27
70916;BME280;58557;50.982;-3.222;2022-12-08T04:20:51;100748.32;;;-0.17;55.12
70916;BME280;58557;50.982;-3.222;2022-12-08T04:23:16;100746.07;;;-0.10;55.63
70916;BME280;58557;50.982;-3.222;2022-12-08T04:25:42;100743.65;;;0.44;54.53
70916;BME280;58557;50.982;-3.222;2022-12-08T04:28:07;100740.67;;;1.63;52.57
70916;BME280;58557;50.982;-3.222;2022-12-08T04:30:33;100735.93;;;2.36;50.06
70916;BME280;58557;50.982;-3.222;2022-12-08T04:32:58;100735.44;;;2.79;49.11
70916;BME280;58557;50.982;-3.222;2022-12-08T04:35:23;100727.03;;;2.02;50.18
70916;BME280;58557;50.982;-3.222;2022-12-08T04:37:48;100725.94;;;2.83;47.73
70916;BME280;58557;50.982;-3.222;2022-12-08T04:40:14;100723.80;;;1.66;48.39
70916;BME280;58557;50.982;-3.222;2022-12-08T04:42:39;100730.80;;;3.54;46.84
70916;BME280;58557;50.982;-3.222;2022-12-08T04:45:05;100731.68;;;3.37;45.95
70916;BME280;58557;50.982;-3.222;2022-12-08T04:47:31;100732.91;;;3.32;46.43
70916;BME280;58557;50.982;-3.222;2022-12-08T04:49:56;100729.89;;;2.82;46.85
70916;BME280;58557;50.982;-3.222;2022-12-08T04:52:22;100726.30;;;3.27;46.28
70916;BME280;58557;50.982;-3.222;2022-12-08T04:54:47;100727.06;;;2.58;47.01
70916;BME280;58557;50.982;-3.222;2022-12-08T04:57:13;100723.74;;;2.75;47.79
70916;BME280;58557;50.982;-3.222;2022-12-08T04:59:39;100719.13;;;1.70;49.30
70916;BME280;58557;50.982;-3.222;2022-12-08T05:02:04;100718.07;;;1.64;50.01
70916;BME280;58557;50.982;-3.222;2022-12-08T05:04:29;100715.12;;;0.35;53.21
70916;BME280;58557;50.982;-3.222;2022-12-08T05:06:55;100717.22;;;-1.40;57.42
70916;BME280;58557;50.982;-3.222;2022-12-08T05:09:20;100711.31;;;-0.99;56.73
70916;BME280;58557;50.982;-3.222;2022-12-08T05:11:45;100716.25;;;-1.20;62.57
70916;BME280;58557;50.982;-3.222;2022-12-08T05:14:12;100713.12;;;-2.07;62.36
70916;BME280;58557;50.982;-3.222;2022-12-08T05:16:36;100714.06;;;-2.83;67.49
70916;BME280;58557;50.982;-3.222;2022-12-08T05:19:01;100712.29;;;-2.38;66.99
70916;BME280;58557;50.982;-3.222;2022-12-08T05:21:27;100708.17;;;-2.07;65.00
70916;BME280;58557;50.982;-3.222;2022-12-08T05:23:52;100705.97;;;-2.70;66.50
70916;BME280;58557;50.982;-3.222;2022-12-08T05:26:17;100706.14;;;-3.06;67.33
70916;BME280;58557;50.982;-3.222;2022-12-08T05:28:43;100700.04;;;-3.29;68.68
70916;BME280;58557;50.982;-3.222;2022-12-08T05:31:08;100696.28;;;-3.25;68.69
70916;BME280;58557;50.982;-3.222;2022-12-08T05:33:33;100695.74;;;-2.27;67.69
70916;BME280;58557;50.982;-3.222;2022-12-08T05:35:58;100695.83;;;-2.93;70.32
70916;BME280;58557;50.982;-3.222;2022-12-08T05:38:23;100693.44;;;-3.25;69.00
70916;BME280;58557;50.982;-3.222;2022-12-08T05:40:49;100693.97;;;-0.84;64.60
70916;BME280;58557;50.982;-3.222;2022-12-08T05:43:14;100683.96;;;-0.77;61.18
70916;BME280;58557;50.982;-3.222;2022-12-08T05:45:39;100685.36;;;-1.39;62.49
70916;BME280;58557;50.982;-3.222;2022-12-08T05:48:04;100673.83;;;-0.62;59.60
70916;BME280;58557;50.982;-3.222;2022-12-08T05:50:30;100668.08;;;-0.97;61.63
70916;BME280;58557;50.982;-3.222;2022-12-08T05:52:55;100666.46;;;-0.58;59.86
70916;BME280;58557;50.982;-3.222;2022-12-08T05:55:21;100667.04;;;0.75;56.36
70916;BME280;58557;50.982;-3.222;2022-12-08T05:57:47;100666.77;;;0.90;54.75
70916;BME280;58557;50.982;-3.222;2022-12-08T06:00:13;100666.00;;;0.96;55.24
70916;BME280;58557;50.982;-3.222;2022-12-08T06:02:38;100666.90;;;-0.94;59.17
70916;BME280;58557;50.982;-3.222;2022-12-08T06:05:03;100668.22;;;0.78;55.09
70916;BME280;58557;50.982;-3.222;2022-12-08T06:07:28;100664.76;;;0.82;57.03
70916;BME280;58557;50.982;-3.222;2022-12-08T06:09:54;100661.56;;;0.68;54.62
70916;BME280;58557;50.982;-3.222;2022-12-08T06:12:19;100656.85;;;0.38;56.26
70916;BME280;58557;50.982;-3.222;2022-12-08T06:14:44;100660.23;;;-0.32;59.26
70916;BME280;58557;50.982;-3.222;2022-12-08T06:17:09;100656.80;;;-1.23;62.75
70916;BME280;58557;50.982;-3.222;2022-12-08T06:19:35;100661.45;;;-1.17;59.56
70916;BME280;58557;50.982;-3.222;2022-12-08T06:22:00;100664.48;;;-2.48;64.41
70916;BME280;58557;50.982;-3.222;2022-12-08T06:24:26;100661.68;;;-0.64;60.71
70916;BME280;58557;50.982;-3.222;2022-12-08T06:26:51;100659.94;;;-1.42;63.76
70916;BME280;58557;50.982;-3.222;2022-12-08T06:29:17;100658.88;;;-2.34;66.09
70916;BME280;58557;50.982;-3.222;2022-12-08T06:31:43;100653.41;;;-2.91;68.58
70916;BME280;58557;50.982;-3.222;2022-12-08T06:34:08;100647.24;;;-1.93;67.58
70916;BME280;58557;50.982;-3.222;2022-12-08T06:36:33;100645.48;;;-2.43;69.44
70916;BME280;58557;50.982;-3.222;2022-12-08T06:38:58;100640.41;;;-1.80;68.06
70916;BME280;58557;50.982;-3.222;2022-12-08T06:41:24;100637.32;;;-2.09;69.06
70916;BME280;58557;50.982;-3.222;2022-12-08T06:43:50;100630.68;;;-1.59;66.55
70916;BME280;58557;50.982;-3.222;2022-12-08T06:46:18;100627.37;;;-0.87;64.50
70916;BME280;58557;50.982;-3.222;2022-12-08T06:48:41;100620.95;;;0.01;62.23
70916;BME280;58557;50.982;-3.222;2022-12-08T06:51:08;100625.47;;;-1.30;63.87
70916;BME280;58557;50.982;-3.222;2022-12-08T06:53:32;100628.11;;;-1.60;66.20
70916;BME280;58557;50.982;-3.222;2022-12-08T06:55:57;100632.01;;;-2.01;67.66
70916;BME280;58557;50.982;-3.222;2022-12-08T06:58:23;100632.76;;;-2.48;70.90
70916;BME280;58557;50.982;-3.222;2022-12-08T07:00:48;100625.00;;;-3.53;72.56
70916;BME280;58557;50.982;-3.222;2022-12-08T07:03:14;100625.74;;;-1.74;68.12
70916;BME280;58557;50.982;-3.222;2022-12-08T07:05:40;100625.07;;;-2.02;69.09
70916;BME280;58557;50.982;-3.222;2022-12-08T07:08:06;100626.48;;;-2.76;71.10
70916;BME280;58557;50.982;-3.222;2022-12-08T07:10:30;100617.88;;;-3.88;75.37
70916;BME280;58557;50.982;-3.222;2022-12-08T07:12:56;100616.69;;;-3.53;75.83
70916;BME280;58557;50.982;-3.222;2022-12-08T07:15:21;100619.09;;;-3.86;78.23
70916;BME280;58557;50.982;-3.222;2022-12-08T07:17:47;100613.42;;;-3.54;77.03
70916;BME280;58557;50.982;-3.222;2022-12-08T07:20:13;100612.17;;;-3.50;77.99
70916;BME280;58557;50.982;-3.222;2022-12-08T07:22:38;100610.85;;;-2.24;74.65
70916;BME280;58557;50.982;-3.222;2022-12-08T07:25:04;100602.69;;;-3.13;77.43
70916;BME280;58557;50.982;-3.222;2022-12-08T07:27:29;100603.48;;;-3.28;75.48
70916;BME280;58557;50.982;-3.222;2022-12-08T07:29:54;100604.47;;;-3.39;76.70
70916;BME280;58557;50.982;-3.222;2022-12-08T07:32:20;100605.86;;;-2.54;74.71
70916;BME280;58557;50.982;-3.222;2022-12-08T07:34:46;100605.39;;;-2.42;72.99
70916;BME280;58557;50.982;-3.222;2022-12-08T07:37:11;100606.48;;;-3.33;74.85
70916;BME280;58557;50.982;-3.222;2022-12-08T07:39:37;100610.68;;;-1.99;72.95
70916;BME280;58557;50.982;-3.222;2022-12-08T07:42:03;100611.60;;;-2.12;71.39
70916;BME280;58557;50.982;-3.222;2022-12-08T07:44:28;100604.66;;;-0.23;63.66
70916;BME280;58557;50.982;-3.222;2022-12-08T07:46:54;100607.50;;;0.70;58.97
70916;BME280;58557;50.982;-3.222;2022-12-08T07:49:20;100605.56;;;1.69;55.42
70916;BME280;58557;50.982;-3.222;2022-12-08T07:51:45;100601.99;;;3.36;52.87
70916;BME280;58557;50.982;-3.222;2022-12-08T07:54:11;100598.10;;;4.46;49.65
70916;BME280;58557;50.982;-3.222;2022-12-08T07:56:36;100596.81;;;4.58;48.73
70916;BME280;58557;50.982;-3.222;2022-12-08T07:59:01;100601.68;;;2.16;52.23
70916;BME280;58557;50.982;-3.222;2022-12-08T08:01:28;100601.34;;;2.01;53.80
70916;BME280;58557;50.982;-3.222;2022-12-08T08:03:55;100600.18;;;1.36;54.23
70916;BME280;58557;50.982;-3.222;2022-12-08T08:06:18;100595.06;;;2.99;52.77
70916;BME280;58557;50.982;-3.222;2022-12-08T08:08:43;100594.29;;;4.97;47.09
70916;BME280;58557;50.982;-3.222;2022-12-08T08:11:09;100594.21;;;5.54;43.84
70916;BME280;58557;50.982;-3.222;2022-12-08T08:13:34;100604.07;;;4.27;46.12
70916;BME280;58557;50.982;-3.222;2022-12-08T08:16:02;100607.24;;;2.65;51.37
70916;BME280;58557;50.982;-3.222;2022-12-08T08:18:25;100606.75;;;1.26;53.84
70916;BME280;58557;50.982;-3.222;2022-12-08T08:20:51;100605.74;;;0.16;58.29
70916;BME280;58557;50.982;-3.222;2022-12-08T08:23:16;100607.68;;;-1.36;63.64
70916;BME280;58557;50.982;-3.222;2022-12-08T08:25:42;100603.39;;;-1.21;65.60
70916;BME280;58557;50.982;-3.222;2022-12-08T08:28:07;100600.81;;;1.04;60.00
70916;BME280;58557;50.982;-3.222;2022-12-08T08:30:33;100601.57;;;0.67;58.52
70916;BME280;58557;50.982;-3.222;2022-12-08T08:32:59;100606.70;;;-0.19;61.72
70916;BME280;58557;50.982;-3.222;2022-12-08T08:35:25;100606.16;;;0.56;59.84
70916;BME280;58557;50.982;-3.222;2022-12-08T08:37:50;100602.22;;;-0.67;63.97
70916;BME280;58557;50.982;-3.222;2022-12-08T08:40:16;100603.23;;;-0.37;61.71
70916;BME280;58557;50.982;-3.222;2022-12-08T08:42:41;100599.57;;;1.89;58.33
70916;BME280;58557;50.982;-3.222;2022-12-08T08:45:07;100593.50;;;-1.47;64.67
70916;BME280;58557;50.982;-3.222;2022-12-08T08:47:33;100586.81;;;-1.08;66.03
70916;BME280;58557;50.982;-3.222;2022-12-08T08:49:58;100583.86;;;-1.61;69.28
70916;BME280;58557;50.982;-3.222;2022-12-08T08:52:23;100579.55;;;-0.87;68.33
70916;BME280;58557;50.982;-3.222;2022-12-08T08:54:48;100579.01;;;-1.70;69.41
70916;BME280;58557;50.982;-3.222;2022-12-08T08:57:14;100577.64;;;-1.18;67.34
70916;BME280;58557;50.982;-3.222;2022-12-08T08:59:39;100579.08;;;-1.94;71.07
70916;BME280;58557;50.982;-3.222;2022-12-08T09:02:05;100573.61;;;-1.58;72.24
70916;BME280;58557;50.982;-3.222;2022-12-08T09:04:30;100573.22;;;-0.26;65.77
70916;BME280;58557;50.982;-3.222;2022-12-08T09:06:55;100573.18;;;-1.26;69.13
70916;BME280;58557;50.982;-3.222;2022-12-08T09:09:20;100570.17;;;-0.16;65.02
70916;BME280;58557;50.982;-3.222;2022-12-08T09:11:46;100573.29;;;-0.71;66.24
70916;BME280;58557;50.982;-3.222;2022-12-08T09:14:12;100577.90;;;-0.34;64.33
70916;BME280;58557;50.982;-3.222;2022-12-08T09:16:37;100578.98;;;0.01;63.66
70916;BME280;58557;50.982;-3.222;2022-12-08T09:19:03;100577.50;;;0.27;61.73
70916;BME280;58557;50.982;-3.222;2022-12-08T09:21:28;100580.73;;;0.38;60.48
70916;BME280;58557;50.982;-3.222;2022-12-08T09:23:55;100577.05;;;1.05;61.61
70916;BME280;58557;50.982;-3.222;2022-12-08T09:26:19;100578.87;;;1.44;57.92
70916;BME280;58557;50.982;-3.222;2022-12-08T09:28:45;100575.96;;;2.74;53.51
70916;BME280;58557;50.982;-3.222;2022-12-08T09:31:11;100571.35;;;5.09;49.15
70916;BME280;58557;50.982;-3.222;2022-12-08T09:33:36;100565.83;;;4.37;48.21
70916;BME280;58557;50.982;-3.222;2022-12-08T09:36:02;100567.01;;;6.58;45.96
70916;BME280;58557;50.982;-3.222;2022-12-08T09:38:27;100569.88;;;6.65;44.97
70916;BME280;58557;50.982;-3.222;2022-12-08T09:40:53;100569.80;;;7.04;44.45
70916;BME280;58557;50.982;-3.222;2022-12-08T09:43:28;100568.45;;;5.77;43.80
70916;BME280;58557;50.982;-3.222;2022-12-08T09:45:44;100567.15;;;2.75;50.66
70916;BME280;58557;50.982;-3.222;2022-12-08T09:48:12;100562.17;;;4.15;50.59
70916;BME280;58557;50.982;-3.222;2022-12-08T09:50:36;100565.17;;;5.93;46.77
70916;BME280;58557;50.982;-3.222;2022-12-08T09:53:03;100569.59;;;7.03;45.30
70916;BME280;58557;50.982;-3.222;2022-12-08T09:55:34;100568.83;;;5.06;46.58
70916;BME280;58557;50.982;-3.222;2022-12-08T09:57:56;100572.28;;;3.32;50.89
70916;BME280;58557;50.982;-3.222;2022-12-08T10:00:17;100576.06;;;1.15;58.35
70916;BME280;58557;50.982;-3.222;2022-12-08T10:02:43;100571.14;;;1.40;59.59
70916;BME280;58557;50.982;-3.222;2022-12-08T10:05:12;100562.37;;;2.64;59.21
70916;BME280;58557;50.982;-3.222;2022-12-08T10:07:37;100564.15;;;4.10;52.64
70916;BME280;58557;50.982;-3.222;2022-12-08T10:10:03;100559.45;;;4.72;49.91
70916;BME280;58557;50.982;-3.222;2022-12-08T10:12:26;100559.42;;;5.37;47.07
70916;BME280;58557;50.982;-3.222;2022-12-08T10:14:55;100555.94;;;5.11;50.36
70916;BME280;58557;50.982;-3.222;2022-12-08T10:17:18;100549.77;;;5.12;48.45
70916;BME280;58557;50.982;-3.222;2022-12-08T10:19:41;100556.40;;;6.36;46.48
70916;BME280;58557;50.982;-3.222;2022-12-08T10:22:14;100555.89;;;6.43;47.09
70916;BME280;58557;50.982;-3.222;2022-12-08T10:24:35;100551.32;;;6.56;44.49
70916;BME280;58557;50.982;-3.222;2022-12-08T10:26:56;100548.28;;;7.03;43.94
70916;BME280;58557;50.982;-3.222;2022-12-08T10:29:21;100538.57;;;7.12;43.96
70916;BME280;58557;50.982;-3.222;2022-12-08T10:31:46;100540.28;;;7.47;43.13
70916;BME280;58557;50.982;-3.222;2022-12-08T10:34:16;100536.52;;;8.03;42.33
70916;BME280;58557;50.982;-3.222;2022-12-08T10:36:47;100536.44;;;7.74;43.55
70916;BME280;58557;50.982;-3.222;2022-12-08T10:39:02;100531.13;;;8.99;41.85
70916;BME280;58557;50.982;-3.222;2022-12-08T10:41:27;100524.24;;;9.95;38.71
70916;BME280;58557;50.982;-3.222;2022-12-08T10:43:58;100524.48;;;10.07;38.28
70916;BME280;58557;50.982;-3.222;2022-12-08T10:46:20;100518.91;;;10.70;37.70
70916;BME280;58557;50.982;-3.222;2022-12-08T10:48:48;100513.72;;;10.00;39.03
70916;BME280;58557;50.982;-3.222;2022-12-08T10:53:44;100508.20;;;10.04;37.72
70916;BME280;58557;50.982;-3.222;2022-12-08T10:56:10;100510.41;;;9.91;38.16
70916;BME280;58557;50.982;-3.222;2022-12-08T10:58:29;100508.95;;;10.26;35.84
70916;BME280;58557;50.982;-3.222;2022-12-08T11:00:51;100500.67;;;11.73;35.26
70916;BME280;58557;50.982;-3.222;2022-12-08T11:03:22;100507.20;;;10.34;37.66
70916;BME280;58557;50.982;-3.222;2022-12-08T11:05:40;100502.47;;;9.67;38.92
70916;BME280;58557;50.982;-3.222;2022-12-08T11:08:05;100491.84;;;9.30;39.75
70916;BME280;58557;50.982;-3.222;2022-12-08T11:10:33;100494.19;;;9.16;40.74
70916;BME280;58557;50.982;-3.222;2022-12-08T11:12:59;100494.43;;;8.74;40.97
70916;BME280;58557;50.982;-3.222;2022-12-08T11:15:20;100495.73;;;8.80;41.33
70916;BME280;58557;50.982;-3.222;2022-12-08T11:20:21;100486.84;;;9.31;39.88
70916;BME280;58557;50.982;-3.222;2022-12-08T11:22:38;100479.60;;;9.34;39.30
70916;BME280;58557;50.982;-3.222;2022-12-08T11:25:08;100475.32;;;9.55;38.64
70916;BME280;58557;50.982;-3.222;2022-12-08T11:27:26;100475.62;;;9.03;39.30
70916;BME280;58557;50.982;-3.222;2022-12-08T11:29:52;100480.70;;;8.10;41.75
70916;BME280;58557;50.982;-3.222;2022-12-08T11:32:17;100479.08;;;7.88;41.73
70916;BME280;58557;50.982;-3.222;2022-12-08T11:34:45;100472.40;;;7.93;41.82
70916;BME280;58557;50.982;-3.222;2022-12-08T11:37:17;100472.80;;;8.41;41.16
70916;BME280;58557;50.982;-3.222;2022-12-08T11:39:35;100473.01;;;8.20;42.71
70916;BME280;58557;50.982;-3.222;2022-12-08T11:42:02;100470.44;;;8.49;41.76
70916;BME280;58557;50.982;-3.222;2022-12-08T11:44:31;100470.13;;;8.33;42.06
70916;BME280;58557;50.982;-3.222;2022-12-08T11:46:51;100466.46;;;8.12;42.37
70916;BME280;58557;50.982;-3.222;2022-12-08T11:49:14;100468.60;;;8.94;40.86
70916;BME280;58557;50.982;-3.222;2022-12-08T11:51:44;100466.98;;;8.17;40.89
70916;BME280;58557;50.982;-3.222;2022-12-08T11:54:14;100465.65;;;7.23;43.82
70916;BME280;58557;50.982;-3.222;2022-12-08T11:56:33;100459.18;;;6.85;44.59
70916;BME280;58557;50.982;-3.222;2022-12-08T11:58:59;100454.69;;;8.71;42.07
70916;BME280;58557;50.982;-3.222;2022-12-08T12:01:22;100453.30;;;8.69;41.23
70916;BME280;58557;50.982;-3.222;2022-12-08T12:03:53;100449.22;;;8.98;41.04
70916;BME280;58557;50.982;-3.222;2022-12-08T12:06:24;100448.24;;;8.24;42.74
70916;BME280;58557;50.982;-3.222;2022-12-08T12:08:45;100447.43;;;7.65;43.85
70916;BME280;58557;50.982;-3.222;2022-12-08T12:11:08;100448.07;;;8.22;44.75
70916;BME280;58557;50.982;-3.222;2022-12-08T12:13:40;100446.67;;;7.00;46.18
70916;BME280;58557;50.982;-3.222;2022-12-08T12:18:22;100438.53;;;7.06;45.24
70916;BME280;58557;50.982;-3.222;2022-12-08T12:20:48;100439.59;;;7.66;44.55
70916;BME280;58557;50.982;-3.222;2022-12-08T12:23:13;100439.58;;;7.52;45.02
70916;BME280;58557;50.982;-3.222;2022-12-08T12:25:33;100437.44;;;7.68;45.59
70916;BME280;58557;50.982;-3.222;2022-12-08T12:28:00;100437.02;;;8.19;43.69
70916;BME280;58557;50.982;-3.222;2022-12-08T12:30:24;100435.62;;;7.91;44.32
70916;BME280;58557;50.982;-3.222;2022-12-08T12:32:52;100430.93;;;7.73;44.58
70916;BME280;58557;50.982;-3.222;2022-12-08T12:35:18;100429.76;;;7.46;44.92
70916;BME280;58557;50.982;-3.222;2022-12-08T12:37:41;100426.02;;;7.81;44.15
70916;BME280;58557;50.982;-3.222;2022-12-08T12:40:10;100427.44;;;7.94;42.28
70916;BME280;58557;50.982;-3.222;2022-12-08T12:42:38;100425.19;;;8.09;42.29
70916;BME280;58557;50.982;-3.222;2022-12-08T12:49:52;100417.92;;;7.78;42.44
70916;BME280;58557;50.982;-3.222;2022-12-08T12:54:35;100407.08;;;9.50;40.61
70916;BME280;58557;50.982;-3.222;2022-12-08T12:59:40;100402.03;;;9.65;38.37